To NAV CANADA Home Page Login to a new session Search on AWWS site Feedback and Comments Disclaimer Vers la page française équivalente Tips FAQ What's new on the site To the Forecasts and Observations / NOTAM section To "File a Flight Plan" website Publications and other links Update of the User's profile FIC Telephone Numbers My Weather Data Folder Route Weather Data Regional Weather Data Local Weather Data To the Forecasts and Observations / NOTAM section
Request Generated 09/27/2016 at 01:49:44 UTC . Weather information available at that time is displayed.

METAR/TAF

MONTREAL/PIERRE-ELLIOTT-TRUDEAU INTL/QC    

SPECI CYUL 270124Z 15007KT 15SM -SHRA OVC150 16/07 A2988 RMK AC8
CVCTV CLD EMBD SLP120 DENSITY ALT 200FT=
METAR CYUL 270100Z 14009KT 15SM OVC110 16/07 A2988 RMK AC8 SLP121
DENSITY ALT 300FT=
METAR CYUL 270000Z 12009KT 15SM OVC120 17/06 A2989 RMK AC8 SLP124
DENSITY ALT 300FT=
METAR CYUL 262300Z 13011KT 30SM FEW120 OVC150 17/05 A2990 RMK AC1AC7
SLP128 DENSITY ALT 300FT=

TAF CYUL 262338Z 2700/2724 11010KT P6SM -SHRA BKN120 OVC180
FM270300 16008KT P6SM -SHRA OVC040
FM270500 16010KT 3SM -RA BR FEW008 OVC020
FM270800 24006KT 6SM BR FEW008 SCT080 PROB30 2708/2713 3/4SM BR
BKN003
FM271400 22007KT P6SM FEW020
FM272000 21008KT P6SM BKN080
RMK NXT FCST BY 270300Z=
Your time UTC time
Weather data provided by Environment Canada and NAV CANADA